• Join FlightAware (Why Join?)
  • Login
  • US Flag 
07:47AM EST


 

Airport Tracker/Info


-or-


 

Live Flight TrackerFlight Track Log ✈ AAY875 ✈ 27-Mar-2014 ✈ KBGR - KPIE

Flight Track Log - Related Links

Times and Time Zones

All times are in EDT time to prevent confusion due to time zone crossing. See the AAY875 flight status page for this flight to view local times or setup timezone preferences in your user account.

Time Position Orientation Groundspeed Altitude Reporting Facility
EDT Latitude Longitude Course Direction KTS MPH feet Rate Location/Type
05:26PM 44.8406 -68.9131 239° Southwest 235 270 3,000  Level Boston Center
05:27PM 44.7894 -69.0031 231° Southwest 244 281 7,200 3,360 Climbing Boston Center
05:28PM 44.7578 -69.0856 242° Southwest 243 280 10,000 2,100 Climbing Boston Center
05:29PM 44.7172 -69.1853 240° Southwest 280 322 11,600 1,560 Climbing Boston Center
05:30PM 44.6708 -69.3042 241° Southwest 329 379 13,200 1,980 Climbing Boston Center
05:31PM 44.5405 -69.6170 239° Southwest  Level FlightAware Approximate
05:31PM 44.6208 -69.4317 241° Southwest 363 418 15,700  Level Boston Center
05:32PM 44.5433 -69.5392 225° Southwest 386 444 17,700 1,740 Climbing Boston Center
05:33PM 44.4581 -69.6411 220° Southwest 394 453 19,400 1,560 Climbing Boston Center
05:34PM 44.3700 -69.7431 220° Southwest 403 464 20,900 1,440 Climbing Boston Center
05:35PM 44.2825 -69.8542 222° Southwest 418 481 22,400 1,620 Climbing Boston Center
05:36PM 44.2003 -69.9694 225° Southwest 419 482 24,300 1,680 Climbing Boston Center
05:37PM 44.1131 -70.0772 222° Southwest 418 481 25,900 1,620 Climbing Boston Center
05:38PM 44.0278 -70.1808 221° Southwest 412 474 27,700 1,200 Climbing Boston Center
05:39PM 43.9403 -70.2872 221° Southwest 412 474 28,400 1,080 Climbing Boston Center
05:40PM 43.8553 -70.3981 223° Southwest 419 482 30,000 1,500 Climbing Boston Center
05:41PM 43.7592 -70.5242 223° Southwest 397 457 31,600 960 Climbing Boston Center
05:42PM 43.6764 -70.6233 221° Southwest 395 455 32,000 180 Climbing Boston Center
05:43PM 43.5894 -70.7214 219° Southwest 397 457 32,000  Level Boston Center
05:44PM 43.5156 -70.8192 224° Southwest 405 466 32,000  Level Boston Center
05:45PM 43.4336 -70.9261 223° Southwest 407 468 32,000  Level Boston Center
05:46PM 43.3442 -71.0297 220° Southwest 407 468 32,000  Level Boston Center
05:47PM 43.2417 -71.1533 221° Southwest 409 471 32,000  Level Boston Center
05:48PM 43.1608 -71.2553 223° Southwest 408 470 32,000  Level Boston Center
05:49PM 43.0725 -71.3589 221° Southwest 406 467 32,000  Level Boston Center
05:50PM 42.9892 -71.4619 222° Southwest 406 467 32,000  Level Boston Center
05:51PM 42.9053 -71.5572 220° Southwest 404 465 32,000  Level Boston Center
05:53PM 42.8192 -71.6631 222° Southwest 410 472 32,000  Level Boston Center
05:54PM 42.7339 -71.7656 221° Southwest 410 472 32,000  Level Boston Center
05:55PM 42.6486 -71.8692 222° Southwest 410 472 32,000  Level Boston Center
05:56PM 42.5444 -71.9883 220° Southwest 409 471 32,000  Level Boston Center
05:57PM 42.4547 -72.0900 220° Southwest 413 475 32,000  Level Boston Center
05:58PM 42.3683 -72.1936 222° Southwest 413 475 32,000  Level Boston Center
05:59PM 42.2828 -72.2953 221° Southwest 410 472 32,000  Level Boston Center
06:00PM 42.1953 -72.3939 220° Southwest 409 471 32,000  Level Boston Center
06:01PM 42.1064 -72.4933 220° Southwest 409 471 32,000  Level Boston Center
06:02PM 42.0203 -72.5953 221° Southwest 410 472 32,000  Level Boston Center
06:03PM 41.9408 -72.7067 226° Southwest 410 472 32,000  Level Boston Center
06:04PM 41.8667 -72.8264 230° Southwest 412 474 32,000  Level Boston Center
06:05PM 41.7906 -72.9394 228° Southwest 411 473 32,000  Level Boston Center
06:06PM 41.6969 -73.0742 227° Southwest 411 473 32,000  Level Boston Center
06:07PM 41.6194 -73.1864 227° Southwest 411 473 32,000  Level Boston Center
06:08PM 41.5458 -73.3025 230° Southwest 411 473 32,000  Level Boston Center
06:09PM 41.4669 -73.4181 228° Southwest 409 471 32,000  Level Boston Center
06:10PM 41.3889 -73.5283 227° Southwest 410 472 32,000  Level Boston Center
06:11PM 41.3114 -73.6422 228° Southwest 416 479 32,000  Level Boston Center
06:12PM 41.2350 -73.7569 228° Southwest 416 479 32,000  Level Boston Center
06:13PM 41.1575 -73.8711 228° Southwest 419 482 32,000  Level Boston Center
06:14PM 41.0622 -74.0061 227° Southwest 419 482 32,000  Level Boston Center
06:15PM 40.9814 -74.1203 227° Southwest 423 487 32,000  Level Boston Center
06:16PM 40.9039 -74.2369 229° Southwest 423 487 32,000 -60 Level Boston Center
06:17PM 40.8306 -74.3417 227° Southwest 430 495 31,900  Descending New York Center
06:18PM 40.7500 -74.4581 228° Southwest 430 495 32,000  Climbing New York Center
06:19PM 40.6814 -74.5803 234° Southwest 425 489 32,000 -60 Level New York Center
06:20PM 40.6089 -74.6992 231° Southwest 425 489 31,900  Descending New York Center
06:21PM 40.5319 -74.8150 229° Southwest 425 489 32,000  Climbing New York Center
06:22PM 40.4489 -74.9247 225° Southwest 431 496 32,000  Level New York Center
06:23PM 40.3697 -75.0397 228° Southwest 431 496 32,000  Level New York Center
06:24PM 40.2906 -75.1547 228° Southwest 431 496 32,000  Level New York Center
06:25PM 40.2114 -75.2664 227° Southwest 431 496 32,000 -60 Level New York Center
06:26PM 40.1297 -75.3778 226° Southwest 426 490 31,900  Descending New York Center
06:27PM 40.0483 -75.4892 226° Southwest 426 490 32,000  Climbing New York Center
06:28PM 39.9686 -75.6056 228° Southwest 426 490 32,000  Level New York Center
06:29PM 39.8889 -75.7192 228° Southwest 426 490 32,000  Level New York Center
06:30PM 39.8239 -75.8256 232° Southwest 426 490 32,000  Level New York Center
06:31PM 39.7519 -75.9444 232° Southwest 426 490 32,000  Level New York Center
06:33PM 39.5661 -76.2322 230° Southwest 423 487 32,000 -60 Level Washington Center
06:34PM 39.4903 -76.3500 230° Southwest 423 487 31,900  Descending Washington Center
06:35PM 39.4186 -76.4647 231° Southwest 423 487 32,000  Climbing Washington Center
06:36PM 39.3408 -76.5792 229° Southwest 430 495 32,000  Level Washington Center
06:37PM 39.2669 -76.6933 230° Southwest 430 495 32,000  Level Washington Center
06:38PM 39.1928 -76.8075 230° Southwest 430 495 32,000  Level Washington Center
06:39PM 39.1186 -76.9239 231° Southwest 425 489 32,000  Level Washington Center
06:40PM 39.0464 -77.0322 229° Southwest 425 489 32,000  Level Washington Center
06:41PM 38.9597 -77.1347 223° Southwest 420 483 32,000  Level Washington Center
06:42PM 38.8689 -77.2286 219° Southwest 420 483 32,000  Level Washington Center
06:43PM 38.7800 -77.3253 220° Southwest 420 483 32,000  Level Washington Center
06:44PM 38.6931 -77.4217 221° Southwest 425 489 32,000  Level Washington Center
06:45PM 38.6039 -77.5203 221° Southwest 425 489 32,000  Level Washington Center
06:46PM 38.5233 -77.6058 220° Southwest 425 489 32,000  Level Washington Center
06:47PM 38.4342 -77.7017 220° Southwest 425 489 32,000  Level Washington Center
06:48PM 38.3469 -77.7969 221° Southwest 425 489 32,000  Level Washington Center
06:49PM 38.2597 -77.8922 221° Southwest 420 483 32,000  Level Washington Center
06:50PM 38.1722 -77.9847 220° Southwest 420 483 32,000  Level Washington Center
06:51PM 38.0828 -78.0819 221° Southwest 420 483 32,000  Level Washington Center
06:52PM 37.9847 -78.1817 219° Southwest 415 478 32,000  Level Washington Center
06:53PM 37.8953 -78.2706 218° Southwest 415 478 32,000  Level Washington Center
06:54PM 37.8100 -78.3492 216° Southwest 421 484 32,000  Level Washington Center
06:55PM 37.7183 -78.4350 217° Southwest 421 484 32,000  Level Washington Center
06:56PM 37.6244 -78.5258 217° Southwest 421 484 32,000  Level Washington Center
06:57PM 37.5325 -78.6139 217° Southwest 426 490 32,000  Level Washington Center
06:58PM 37.4386 -78.6992 216° Southwest 426 490 32,000  Level Washington Center
06:59PM 37.3358 -78.7969 217° Southwest 426 490 32,000  Level Washington Center
07:00PM 37.2417 -78.8817 216° Southwest 426 490 32,000  Level Washington Center
07:01PM 37.1494 -78.9689 217° Southwest 426 490 32,000  Level Washington Center
07:02PM 37.0553 -79.0558 216° Southwest 426 490 32,000  Level Washington Center
07:04PM 36.8950 -79.1983 215° Southwest 422 486 32,000  Level Atlanta Center
07:05PM 36.8003 -79.2844 216° Southwest 422 486 32,000  Level Atlanta Center
07:06PM 36.7081 -79.3753 218° Southwest 422 486 32,000  Level Atlanta Center
07:07PM 36.6131 -79.4611 216° Southwest 422 486 32,000  Level Atlanta Center
07:08PM 36.5161 -79.5467 215° Southwest 422 486 32,000  Level Atlanta Center
07:09PM 36.4314 -79.6211 215° Southwest 422 486 32,000  Level Atlanta Center
07:10PM 36.3386 -79.7114 218° Southwest 422 486 32,000  Level Atlanta Center
07:11PM 36.2436 -79.7961 216° Southwest 422 486 32,000  Level Atlanta Center
07:12PM 36.1464 -79.8811 215° Southwest 422 486 32,000  Level Atlanta Center
07:13PM 36.0300 -79.9564 208° Southwest 422 486 32,000  Level Atlanta Center
07:14PM 35.9169 -80.0108 201° Southwest 428 493 32,000  Level Atlanta Center
07:15PM 35.8022 -80.0675 202° Southwest 436 502 32,000  Level Atlanta Center
07:16PM 35.6936 -80.1292 205° Southwest 441 507 32,000  Level Atlanta Center
07:17PM 35.5931 -80.1850 204° Southwest 441 507 32,000  Level Atlanta Center
07:18PM 35.4803 -80.2439 203° Southwest 441 507 32,000  Level Atlanta Center
07:19PM 35.3672 -80.3000 202° Southwest 441 507 32,000  Level Atlanta Center
07:20PM 35.2458 -80.3589 202° Southwest 441 507 32,000  Level Atlanta Center
07:21PM 35.1328 -80.4197 204° Southwest 441 507 32,000  Level Atlanta Center
07:23PM 34.9386 -80.5197 203° Southwest 445 512 32,000  Level Jacksonville Center
07:24PM 34.8269 -80.5761 203° Southwest 445 512 32,000  Level Jacksonville Center
07:25PM 34.7175 -80.6319 203° Southwest 434 499 32,000  Level Jacksonville Center
07:26PM 34.6036 -80.6881 202° Southwest 434 499 32,000  Level Jacksonville Center
07:27PM 34.4878 -80.7414 201° Southwest 444 511 32,000  Level Jacksonville Center
07:28PM 34.3700 -80.8019 203° Southwest 450 518 32,000  Level Jacksonville Center
07:29PM 34.2622 -80.8500 200° South 450 518 32,000  Level Jacksonville Center
07:30PM 34.1503 -80.9028 201° Southwest 434 499 32,000  Level Jacksonville Center
07:31PM 34.0386 -80.9578 202° Southwest 434 499 32,000  Level Jacksonville Center
07:32PM 33.9225 -81.0106 201° Southwest 434 499 32,000  Level Jacksonville Center
07:33PM 33.7981 -81.0681 201° Southwest 443 510 32,000  Level Jacksonville Center
07:34PM 33.6842 -81.1231 202° Southwest 443 510 32,000  Level Jacksonville Center
07:35PM 33.5722 -81.1750 201° Southwest 443 510 32,000  Level Jacksonville Center
07:36PM 33.4581 -81.2294 202° Southwest 443 510 32,000  Level Jacksonville Center
07:37PM 33.3442 -81.2839 202° Southwest 443 510 32,000  Level Jacksonville Center
07:38PM 33.2319 -81.3331 200° South 443 510 32,000  Level Jacksonville Center
07:39PM 33.1219 -81.3847 201° Southwest 438 504 32,000  Level Jacksonville Center
07:40PM 33.0119 -81.4336 200° South 438 504 32,000  Level Jacksonville Center
07:41PM 32.8956 -81.4872 201° Southwest 433 498 32,000  Level Jacksonville Center
07:42PM 32.7878 -81.5383 202° Southwest 433 498 32,000  Level Jacksonville Center
07:43PM 32.6881 -81.5819 200° South 433 498 32,000  Level Jacksonville Center
07:44PM 32.5675 -81.6403 202° Southwest 433 498 32,000  Level Jacksonville Center
07:45PM 32.4572 -81.6886 200° South 433 498 32,000  Level Jacksonville Center
07:46PM 32.3594 -81.7269 198° South 433 498 32,000  Level Jacksonville Center
07:47PM 32.2303 -81.7578 191° South 420 483 32,000  Level Jacksonville Center
07:48PM 32.1239 -81.7739 187° South 433 498 32,000  Level Jacksonville Center
07:49PM 31.9928 -81.8050 191° South 433 498 32,000  Level Jacksonville Center
07:50PM 31.8825 -81.8381 194° South 426 490 32,000  Level Jacksonville Center
07:51PM 31.7761 -81.8636 192° South 431 496 32,000  Level Jacksonville Center
07:52PM 31.6469 -81.8919 191° South 436 502 32,000  Level Jacksonville Center
07:53PM 31.5428 -81.9125 190° South 425 489 32,000  Level Jacksonville Center
07:54PM 31.4175 -81.9431 192° South 425 489 32,000 -180 Level Jacksonville Center
07:55PM 31.3031 -81.9736 193° South 425 489 31,700 -600 Descending Jacksonville Center
07:56PM 31.1883 -82.0014 192° South 430 495 30,800 -900 Descending Jacksonville Center
07:57PM 31.0694 -82.0242 189° South 430 495 29,900 -1,020 Descending Jacksonville Center
07:58PM 30.9506 -82.0519 191° South 436 502 28,800 -960 Descending Jacksonville Center
07:59PM 30.8422 -82.0797 192° South 441 507 28,000 -420 Descending Jacksonville Center
08:00PM 30.7214 -82.1072 191° South 441 507 28,000 -60 Level Jacksonville Center
08:01PM 30.6025 -82.1322 190° South 441 507 27,900 -60 Descending Jacksonville Center
08:02PM 30.4689 -82.1575 189° South 446 513 27,900 -120 Level Jacksonville Center
08:03PM 30.3481 -82.1872 192° South 451 519 27,700 -480 Descending Jacksonville Center
08:04PM 30.2333 -82.2122 191° South 438 504 27,000 -360 Descending Jacksonville Center
08:05PM 30.1167 -82.2394 191° South 422 486 27,000 -60 Level Jacksonville Center
08:06PM 30.0122 -82.2642 192° South 431 496 26,900 -240 Descending Jacksonville Center
08:07PM 29.8997 -82.2889 191° South 426 490 26,600 -660 Descending Jacksonville Center
08:08PM 29.7850 -82.3158 192° South 426 490 25,600 -840 Descending Jacksonville Center
08:09PM 29.6619 -82.3428 191° South 426 490 25,000 -420 Descending Jacksonville Center
08:10PM 29.5492 -82.3556 186° South 416 479 24,800 -780 Descending Jacksonville Center
08:11PM 29.4322 -82.3442 175° South 416 479 23,500 -1,380 Descending Jacksonville Center
08:12PM 29.3194 -82.3256 172° South 416 479 22,100 -1,200 Descending Jacksonville Center
08:13PM 29.2047 -82.3144 175° South 422 486 21,100 -1,140 Descending Jacksonville Center
08:14PM 29.0939 -82.3033 175° South 417 480 19,900 -1,620 Descending Jacksonville Center
08:15PM 28.9853 -82.2897 174° South 412 474 17,900 -2,400 Descending Jacksonville Center
08:17PM 28.7667 -82.2667 175° South 390 449 12,900 -2,040 Descending Tampa TRACON
08:18PM 28.6833 -82.2500 170° South 314 361 11,900 -1,140 Descending Tampa TRACON
08:19PM 28.6000 -82.2833 199° South 284 327 10,700 -960 Descending Tampa TRACON
08:20PM 28.5833 -82.3667 257° West 272 313 10,000 -360 Descending Tampa TRACON
08:21PM 28.5667 -82.4500 257° West 278 320 10,000 -540 Level Tampa TRACON
08:22PM 28.5333 -82.5333 246° West 277 319 9,000 -1,320 Descending Tampa TRACON
08:23PM 28.5167 -82.6167 257° West 271 312 7,400 -1,560 Descending Tampa TRACON
08:24PM 28.4667 -82.6667 221° Southwest 259 298 5,900 -1,560 Descending Tampa TRACON
08:25PM 28.4000 -82.7000 204° Southwest 252 290 4,300 -1,560 Descending Tampa TRACON
08:26PM 28.3333 -82.7333 204° Southwest 252 290 3,000 -660 Descending Tampa TRACON
08:27PM 28.2833 -82.7667 210° Southwest 182 209 3,000  Level Tampa TRACON
08:28PM 28.2333 -82.7500 164° South 167 192 3,000  Level Tampa TRACON
08:29PM 28.1833 -82.7333 164° South 177 204 3,000 -180 Level Tampa TRACON
08:30PM 28.1333 -82.7333 180° South 176 203 2,700 -240 Descending Tampa TRACON
08:31PM 28.1000 -82.7167 156° South 172 198 2,600 -240 Descending Tampa TRACON
08:32PM 28.0500 -82.7167 180° South 148 170 2,300 -480 Descending Tampa TRACON
08:33PM 28.0167 -82.7000 156° South 130 150 1,700 -660 Descending Tampa TRACON
08:34PM 27.9833 -82.7000 180° South 127 146 1,000 -720 Descending Tampa TRACON
08:35PM 27.9333 -82.7000 180° South 137 158 300 -720 Descending Tampa TRACON